Time;durP1;ratioP1;P1;durP2;ratioP2;P2;SDS_P1;SDS_P2;PMS_P1;PMS_P2;Temp;Humidity;BMP_temperature;BMP_pressure;BME280_temperature;BME280_humidity;BME280_pressure;Samples;Min_cycle;Max_cycle;Signal;HPM_P1;HPM_P2
2023/02/01 00:01:33;;;;;;;6.88;5.03;;;;;;;1.73;100.00;100583.84;4997272;28;20491;-74
2023/02/01 00:03:59;;;;;;;8.73;6.43;;;;;;;1.76;100.00;100599.34;5011953;28;20117;-74
2023/02/01 00:06:24;;;;;;;6.78;5.10;;;;;;;1.67;100.00;100591.03;5011646;28;20030;-74
2023/02/01 00:08:54;;;;;;;8.10;5.15;;;;;;;1.38;100.00;100530.31;4998240;28;20026;-74
2023/02/01 00:11:21;;;;;;;7.07;5.00;;;;;;;1.89;100.00;100607.88;4999254;28;20412;-73
2023/02/01 00:13:47;;;;;;;6.38;4.35;;;;;;;1.88;100.00;100599.38;5011661;28;20038;-73
2023/02/01 00:16:30;;;;;;;8.48;5.07;;;;;;;1.87;100.00;100611.97;5011656;28;20030;-73
2023/02/01 00:19:02;;;;;;;6.82;4.82;;;;;;;1.81;100.00;100604.78;5011611;28;20026;-74
2023/02/01 00:21:29;;;;;;;6.40;4.38;;;;;;;1.39;100.00;100548.25;5011480;28;20041;-73
2023/02/01 00:23:54;;;;;;;7.47;5.38;;;;;;;1.81;100.00;100609.88;5011110;28;20036;-74
2023/02/01 00:26:30;;;;;;;7.00;4.53;;;;;;;1.81;100.00;100609.88;4997542;28;20041;-73
2023/02/01 00:28:55;;;;;;;9.13;6.35;;;;;;;1.75;100.00;100602.66;5011518;28;20112;-75
2023/02/01 00:31:21;;;;;;;7.75;5.88;;;;;;;1.67;100.00;100598.66;5010999;28;20113;-75
2023/02/01 00:33:47;;;;;;;8.77;6.00;;;;;;;1.69;100.00;100592.00;5011293;28;20407;-74
2023/02/01 00:36:13;;;;;;;9.23;6.32;;;;;;;1.88;100.00;100616.28;5010117;28;20037;-73
2023/02/01 00:38:39;;;;;;;8.70;5.75;;;;;;;1.81;100.00;100586.97;5003314;28;20025;-73
2023/02/01 00:41:09;;;;;;;6.38;4.82;;;;;;;1.99;100.00;100609.44;5005030;28;20415;-73
2023/02/01 00:43:35;;;;;;;7.38;5.40;;;;;;;2.00;100.00;100614.66;5011055;28;20026;-73
2023/02/01 00:46:01;;;;;;;8.18;5.90;;;;;;;2.02;100.00;100613.09;5010863;28;20045;-73
2023/02/01 00:48:27;;;;;;;7.85;5.88;;;;;;;1.99;100.00;100606.91;5009782;28;20045;-73
2023/02/01 00:50:54;;;;;;;8.70;6.10;;;;;;;1.84;100.00;100584.63;5010909;28;20117;-73
2023/02/01 00:53:19;;;;;;;8.10;5.90;;;;;;;2.02;100.00;100609.66;5010061;28;20671;-73
2023/02/01 00:55:46;;;;;;;8.07;5.60;;;;;;;2.04;100.00;100600.47;5009969;28;20069;-73
2023/02/01 00:58:12;;;;;;;7.03;4.95;;;;;;;2.05;100.00;100613.31;5010585;28;20030;-74
2023/02/01 01:00:37;;;;;;;8.30;5.85;;;;;;;2.01;100.00;100598.59;4991433;28;20482;-73
2023/02/01 01:03:17;;;;;;;8.27;5.90;;;;;;;1.86;100.00;100567.81;5010003;28;20026;-73
2023/02/01 01:05:43;;;;;;;8.15;5.10;;;;;;;2.00;100.00;100594.28;5010500;28;20041;-73
2023/02/01 01:08:09;;;;;;;8.68;5.78;;;;;;;1.68;100.00;100546.97;5010624;28;20033;-73
2023/02/01 01:10:34;;;;;;;15.65;8.82;;;;;;;1.91;100.00;100602.13;5010402;28;20022;-73
2023/02/01 01:13:00;;;;;;;14.90;8.75;;;;;;;1.64;100.00;100560.25;5010291;28;20092;-73
2023/02/01 01:15:25;;;;;;;15.63;8.25;;;;;;;1.72;100.00;100596.44;5010307;28;20105;-73
2023/02/01 01:17:51;;;;;;;10.27;6.90;;;;;;;1.69;100.00;100596.22;5010339;28;20034;-73
2023/02/01 01:20:17;;;;;;;8.95;6.10;;;;;;;1.59;100.00;100600.59;5011032;28;20450;-73
2023/02/01 01:22:42;;;;;;;10.45;6.15;;;;;;;1.07;100.00;100553.44;5011065;28;20373;-73
2023/02/01 01:25:08;;;;;;;7.18;5.57;;;;;;;1.23;100.00;100601.28;5010779;28;20483;-73
2023/02/01 01:27:33;;;;;;;10.27;6.13;;;;;;;1.17;100.00;100605.88;5010881;28;20064;-73
2023/02/01 01:29:58;;;;;;;8.55;5.82;;;;;;;1.11;100.00;100578.34;5010928;28;20129;-73
2023/02/01 01:32:24;;;;;;;7.63;5.40;;;;;;;1.25;100.00;100597.19;5010724;28;20065;-73
2023/02/01 01:34:49;;;;;;;9.93;6.38;;;;;;;1.33;100.00;100602.88;5010963;28;20030;-73
2023/02/01 01:37:15;;;;;;;11.23;7.28;;;;;;;1.32;100.00;100604.53;5010875;28;20403;-73
2023/02/01 01:39:40;;;;;;;9.90;7.10;;;;;;;1.33;100.00;100603.72;5010719;28;20095;-73
2023/02/01 01:42:12;;;;;;;9.85;7.20;;;;;;;1.33;100.00;100601.19;5010742;28;20034;-73
2023/02/01 01:44:55;;;;;;;11.38;7.22;;;;;;;1.31;100.00;100606.94;5010298;28;20092;-74
2023/02/01 01:47:20;;;;;;;10.68;6.93;;;;;;;1.34;100.00;100608.06;5010577;28;20026;-73
2023/02/01 01:49:46;;;;;;;8.43;6.32;;;;;;;1.25;100.00;100613.34;5010687;28;20587;-73
2023/02/01 01:52:12;;;;;;;10.20;6.10;;;;;;;1.26;100.00;100614.25;5010460;28;20026;-73
2023/02/01 01:54:43;;;;;;;9.88;5.88;;;;;;;1.23;100.00;100607.22;5014496;28;20069;-73
2023/02/01 01:57:23;;;;;;;9.50;6.10;;;;;;;1.23;100.00;100609.78;5014566;28;20109;-74
2023/02/01 01:59:57;;;;;;;10.30;6.57;;;;;;;1.25;100.00;100610.78;5014764;28;20056;-74
2023/02/01 02:02:22;;;;;;;9.45;6.20;;;;;;;1.29;100.00;100614.47;5014670;28;20084;-74
2023/02/01 02:04:48;;;;;;;8.27;5.80;;;;;;;1.26;100.00;100607.47;5028842;28;20038;-73
2023/02/01 02:07:19;;;;;;;8.43;5.85;;;;;;;1.25;100.00;100602.28;5014640;28;20400;-73
2023/02/01 02:09:46;;;;;;;9.18;6.00;;;;;;;1.06;100.00;100593.25;5014580;28;20160;-73
2023/02/01 02:12:11;;;;;;;8.75;5.97;;;;;;;0.82;100.00;100545.59;5014597;28;20041;-74
2023/02/01 02:14:37;;;;;;;10.45;7.10;;;;;;;0.87;100.00;100557.00;5018373;28;20025;-73
2023/02/01 02:17:21;;;;;;;13.18;6.57;;;;;;;0.98;100.00;100586.66;5034043;28;20479;-75
2023/02/01 02:19:59;;;;;;;10.20;6.72;;;;;;;0.96;100.00;100591.66;5033996;28;20548;-75
2023/02/01 02:23:01;;;;;;;10.60;6.75;;;;;;;1.11;100.00;100584.31;5034372;28;20067;-74
2023/02/01 02:26:03;;;;;;;8.88;5.75;;;;;;;1.23;100.00;100583.47;4972774;28;20645;-75
2023/02/01 02:28:54;;;;;;;8.85;6.07;;;;;;;1.28;100.00;100587.25;4972683;28;20102;-74
2023/02/01 02:31:56;;;;;;;8.43;5.53;;;;;;;1.32;100.00;100581.63;4972796;28;20039;-75
2023/02/01 02:34:52;;;;;;;9.15;5.40;;;;;;;1.13;100.00;100584.41;4956084;28;20264;-73
2023/02/01 02:38:03;;;;;;;8.80;5.60;;;;;;;1.09;100.00;100587.50;4972798;28;20189;-73
2023/02/01 02:41:01;;;;;;;8.20;5.65;;;;;;;0.92;100.00;100601.44;4896259;29;20036;-72
2023/02/01 02:49:24;;;;;;;10.90;6.77;;;;;;;0.57;100.00;100566.56;4803716;29;20127;-73
2023/02/01 02:54:51;;;;;;;9.88;6.18;;;;;;;0.69;100.00;100574.28;4803456;29;20066;-74
2023/02/01 03:05:46;;;;;;;7.93;5.88;;;;;;;0.85;100.00;100578.84;4856532;29;20071;-74
2023/02/01 03:08:16;;;;;;;9.52;6.05;;;;;;;1.07;100.00;100617.00;4858351;29;20045;-74
2023/02/01 03:10:48;;;;;;;7.05;4.75;;;;;;;1.07;100.00;100606.84;4858565;29;20444;-74
2023/02/01 03:13:26;;;;;;;7.75;5.40;;;;;;;0.85;100.00;100569.59;4858329;29;20117;-73
2023/02/01 03:16:07;;;;;;;10.65;5.60;;;;;;;1.16;100.00;100607.56;4858379;29;20124;-74
2023/02/01 03:18:47;;;;;;;7.10;5.20;;;;;;;1.05;100.00;100588.94;4933239;29;20556;-74
2023/02/01 03:21:18;;;;;;;7.28;5.07;;;;;;;1.18;100.00;100605.13;4993690;28;20061;-74
2023/02/01 03:23:47;;;;;;;7.18;5.18;;;;;;;1.17;100.00;100603.34;4993969;28;20035;-73
2023/02/01 03:26:16;;;;;;;6.88;4.53;;;;;;;1.16;100.00;100609.19;4993449;28;20034;-74
2023/02/01 03:28:48;;;;;;;;;;;;;;;1.21;100.00;100612.97;4993683;28;20026;-74
2023/02/01 03:31:13;;;;;;;9.48;4.88;;;;;;;0.84;100.00;100572.03;4993534;28;19913;-74
2023/02/01 03:33:40;;;;;;;7.87;4.60;;;;;;;0.94;100.00;100608.44;4993328;28;20045;-74
2023/02/01 03:36:22;;;;;;;8.05;5.07;;;;;;;1.04;100.00;100612.56;4993267;28;20042;-73
2023/02/01 03:38:47;;;;;;;7.15;5.03;;;;;;;1.16;100.00;100619.38;4993439;28;20030;-74
2023/02/01 03:41:28;;;;;;;9.25;4.60;;;;;;;1.23;100.00;100617.41;4993092;28;20037;-73
2023/02/01 03:44:01;;;;;;;9.57;4.80;;;;;;;1.19;100.00;100601.81;5007500;28;20780;-73
2023/02/01 03:46:47;;;;;;;7.95;5.28;;;;;;;1.12;100.00;100618.25;4993021;28;20031;-73
2023/02/01 03:49:20;;;;;;;8.07;5.15;;;;;;;1.00;100.00;100614.75;4993205;28;20404;-74
2023/02/01 03:51:48;;;;;;;7.80;5.60;;;;;;;0.88;100.00;100610.50;4992620;28;20458;-73
2023/02/01 03:54:15;;;;;;;6.82;4.75;;;;;;;0.80;100.00;100620.06;4992637;28;20046;-73
2023/02/01 03:56:44;;;;;;;7.68;5.18;;;;;;;0.60;100.00;100610.00;4993010;28;20038;-74
2023/02/01 03:59:10;;;;;;;8.77;5.35;;;;;;;0.60;100.00;100622.72;4993102;28;20034;-73
2023/02/01 04:01:36;;;;;;;8.57;5.28;;;;;;;0.78;100.00;100626.66;4993023;28;20030;-74
2023/02/01 04:04:01;;;;;;;8.00;5.25;;;;;;;0.89;100.00;100622.44;4992806;28;20498;-74
2023/02/01 04:06:27;;;;;;;7.25;5.03;;;;;;;0.93;100.00;100619.34;4992328;28;20480;-74
2023/02/01 04:08:52;;;;;;;7.38;5.30;;;;;;;0.86;100.00;100617.13;4992915;28;20030;-73
2023/02/01 04:11:18;;;;;;;6.70;4.72;;;;;;;0.98;100.00;100624.81;4992233;28;20052;-74
2023/02/01 04:13:43;;;;;;;8.63;5.25;;;;;;;0.77;100.00;100579.19;5008684;28;20042;-74
2023/02/01 04:16:09;;;;;;;8.95;5.43;;;;;;;1.16;100.00;100637.16;5011468;28;20033;-74
2023/02/01 04:18:34;;;;;;;9.50;4.93;;;;;;;1.15;100.00;100643.00;5011839;28;20056;-74
2023/02/01 04:21:01;;;;;;;8.50;4.65;;;;;;;0.92;100.00;100614.16;5011789;28;20096;-74
2023/02/01 04:23:31;;;;;;;8.93;5.32;;;;;;;1.06;100.00;100631.38;5008732;28;20037;-74
2023/02/01 04:26:01;;;;;;;9.15;5.80;;;;;;;1.02;100.00;100636.97;5000730;28;20026;-73
2023/02/01 04:28:27;;;;;;;9.60;5.68;;;;;;;1.09;100.00;100648.53;5003204;28;20411;-74
2023/02/01 04:30:52;;;;;;;9.98;6.65;;;;;;;1.15;100.00;100660.81;5011814;28;20030;-74
2023/02/01 04:33:18;;;;;;;10.88;6.50;;;;;;;1.13;100.00;100669.25;5011772;28;20165;-74
2023/02/01 04:35:43;;;;;;;8.23;5.90;;;;;;;0.91;100.00;100671.75;5011930;28;20030;-73
2023/02/01 04:38:08;;;;;;;9.18;6.15;;;;;;;0.85;100.00;100667.81;5025799;28;20423;-74
2023/02/01 04:40:34;;;;;;;10.50;6.90;;;;;;;0.40;100.00;100642.31;5011657;28;20112;-73
2023/02/01 04:43:01;;;;;;;11.07;6.35;;;;;;;0.62;100.00;100683.03;5011280;28;20038;-74
2023/02/01 04:45:26;;;;;;;8.85;5.80;;;;;;;0.55;100.00;100670.59;5012009;28;20530;-74
2023/02/01 04:47:52;;;;;;;8.57;5.97;;;;;;;0.68;100.00;100685.16;5011642;28;20042;-74
2023/02/01 04:50:17;;;;;;;10.60;6.40;;;;;;;0.69;100.00;100681.00;5010709;28;20480;-73
2023/02/01 04:52:45;;;;;;;9.20;6.38;;;;;;;0.52;100.00;100661.84;5004621;28;20034;-74
2023/02/01 04:55:10;;;;;;;8.87;6.30;;;;;;;0.62;100.00;100671.97;5006235;28;20050;-74
2023/02/01 04:57:38;;;;;;;9.13;5.93;;;;;;;0.62;100.00;100680.50;5024586;28;20036;-74
2023/02/01 05:00:05;;;;;;;11.73;6.13;;;;;;;0.56;100.00;100676.56;5006239;28;20026;-74
2023/02/01 05:02:32;;;;;;;9.77;7.20;;;;;;;0.44;100.00;100667.19;5009935;28;20041;-74
2023/02/01 05:04:57;;;;;;;10.77;6.40;;;;;;;0.51;100.00;100685.47;5010457;28;20029;-74
2023/02/01 05:07:23;;;;;;;9.37;6.00;;;;;;;0.48;100.00;100684.44;5010973;28;20034;-74
2023/02/01 05:09:48;;;;;;;8.63;5.63;;;;;;;0.53;100.00;100696.66;5011164;28;20041;-73
2023/02/01 05:14:58;;;;;;;7.47;5.47;;;;;;;0.63;100.00;100711.84;5001970;28;20124;-74
2023/02/01 05:17:23;;;;;;;8.77;5.80;;;;;;;0.53;100.00;100702.59;5006876;28;20073;-73
2023/02/01 05:19:48;;;;;;;8.55;5.80;;;;;;;0.13;100.00;100636.78;5011111;28;20033;-74
2023/02/01 05:22:14;;;;;;;10.83;7.53;;;;;;;0.63;100.00;100716.94;5011012;28;20022;-74
2023/02/01 05:24:39;;;;;;;12.45;8.20;;;;;;;0.41;100.00;100663.50;5011036;28;20030;-74
2023/02/01 05:27:05;;;;;;;22.40;13.53;;;;;;;0.48;100.00;100664.13;5010857;28;20113;-73
2023/02/01 05:29:30;;;;;;;12.20;7.63;;;;;;;0.50;100.00;100663.38;5010837;28;20037;-74
2023/02/01 05:31:56;;;;;;;9.35;6.65;;;;;;;0.75;100.00;100712.84;5011153;28;20041;-73
2023/02/01 05:34:21;;;;;;;10.27;6.17;;;;;;;0.71;100.00;100710.84;5011045;28;20392;-73
2023/02/01 05:36:46;;;;;;;10.43;7.22;;;;;;;0.74;100.00;100713.59;5009636;28;20029;-73
2023/02/01 05:39:12;;;;;;;8.43;6.28;;;;;;;0.77;100.00;100718.03;5010899;28;20152;-73
2023/02/01 05:41:37;;;;;;;7.28;5.25;;;;;;;0.78;100.00;100712.19;5011032;28;20033;-74
2023/02/01 05:44:03;;;;;;;9.15;5.95;;;;;;;0.85;100.00;100722.09;5011412;28;20034;-74
2023/02/01 05:46:28;;;;;;;9.23;6.40;;;;;;;0.75;100.00;100712.84;5024884;28;20393;-74
2023/02/01 05:48:54;;;;;;;8.70;5.50;;;;;;;0.70;100.00;100737.00;5011252;28;20030;-74
2023/02/01 05:51:19;;;;;;;9.80;6.60;;;;;;;0.32;100.00;100677.25;5011022;28;20050;-74
2023/02/01 05:53:45;;;;;;;11.13;6.77;;;;;;;0.51;100.00;100721.03;5010675;28;20113;-74
2023/02/01 05:56:10;;;;;;;10.38;6.95;;;;;;;0.38;100.00;100689.56;5010777;28;20032;-74
2023/02/01 05:58:36;;;;;;;10.40;7.17;;;;;;;0.60;100.00;100729.41;5010711;28;20048;-74
2023/02/01 06:01:03;;;;;;;13.40;8.03;;;;;;;0.60;100.00;100737.03;5010868;28;20494;-73
2023/02/01 06:03:28;;;;;;;9.97;6.47;;;;;;;0.53;100.00;100740.72;5010633;28;20034;-74
2023/02/01 06:05:54;;;;;;;9.07;6.20;;;;;;;0.19;100.00;100694.78;5010782;28;20572;-74
2023/02/01 06:08:19;;;;;;;9.83;6.10;;;;;;;0.33;100.00;100718.78;5010749;28;20467;-74
2023/02/01 06:10:44;;;;;;;9.40;6.07;;;;;;;0.32;100.00;100742.38;5010510;28;20116;-73
2023/02/01 06:13:10;;;;;;;12.17;6.73;;;;;;;0.25;100.00;100740.09;5010845;28;20653;-74
2023/02/01 06:15:37;;;;;;;9.57;6.10;;;;;;;0.43;100.00;100741.59;5010790;28;20117;-73
2023/02/01 06:18:03;;;;;;;10.37;6.30;;;;;;;0.47;100.00;100733.50;5010406;28;20030;-74
2023/02/01 06:20:29;;;;;;;10.63;6.77;;;;;;;0.55;100.00;100746.81;5010494;28;20026;-74
2023/02/01 06:22:54;;;;;;;10.47;5.87;;;;;;;0.40;100.00;100749.00;5010522;28;20037;-74
2023/02/01 06:25:21;;;;;;;9.20;6.37;;;;;;;0.20;100.00;100714.34;5010420;28;20653;-74
2023/02/01 06:27:46;;;;;;;8.02;5.72;;;;;;;0.36;100.00;100746.94;5010554;28;20403;-74
2023/02/01 06:30:15;;;;;;;10.97;6.30;;;;;;;0.26;100.00;100707.25;5010532;28;20041;-73
2023/02/01 14:50:17;;;;;;;4.60;1.83;;;;;;;7.68;80.51;100533.34;4968789;28;20313;-65
2023/02/01 14:53:06;;;;;;;7.72;2.92;;;;;;;7.60;81.75;100539.00;4975084;28;20035;-65
2023/02/01 14:55:50;;;;;;;6.53;2.80;;;;;;;7.55;83.08;100532.75;4916422;29;20131;-65
2023/02/01 14:58:58;;;;;;;8.27;1.98;;;;;;;7.51;80.91;100538.50;4910100;29;20028;-65
2023/02/01 15:01:26;;;;;;;2.35;1.70;;;;;;;7.35;81.09;100528.28;4872964;29;20041;-66
2023/02/01 15:04:01;;;;;;;2.05;1.58;;;;;;;7.34;80.94;100537.69;4876242;29;20058;-65
2023/02/01 15:06:26;;;;;;;5.70;2.53;;;;;;;7.27;82.31;100544.16;4875938;29;20545;-66
2023/02/01 15:08:59;;;;;;;4.82;2.15;;;;;;;7.22;83.40;100539.63;4871381;29;20068;-65
2023/02/01 15:11:25;;;;;;;5.03;2.22;;;;;;;7.16;83.67;100539.31;4870400;29;20037;-65
2023/02/01 15:13:54;;;;;;;4.80;2.38;;;;;;;7.07;83.89;100547.41;4875622;29;20521;-65
2023/02/01 15:16:21;;;;;;;7.23;2.70;;;;;;;6.99;84.61;100544.44;4875788;29;20568;-65
2023/02/01 15:18:47;;;;;;;5.07;2.10;;;;;;;6.97;83.82;100540.91;4866768;29;20117;-65
2023/02/01 15:21:19;;;;;;;6.15;3.38;;;;;;;6.69;84.70;100508.66;4857470;29;20033;-65
2023/02/01 15:23:48;;;;;;;6.65;2.83;;;;;;;6.90;85.43;100544.84;4857257;29;20466;-65
2023/02/01 15:26:25;;;;;;;7.30;2.67;;;;;;;6.86;84.05;100537.75;4857011;29;20429;-66
2023/02/01 15:28:50;;;;;;;3.55;1.88;;;;;;;6.78;85.87;100539.94;4856857;29;20048;-65
2023/02/01 15:31:38;;;;;;;4.13;2.50;;;;;;;6.72;85.30;100531.03;4866789;29;20049;-65
2023/02/01 15:34:04;;;;;;;7.65;2.45;;;;;;;6.67;85.70;100535.00;4880011;29;20466;-65
2023/02/01 15:36:31;;;;;;;3.88;1.98;;;;;;;6.65;86.67;100537.50;4893568;29;20037;-66
2023/02/01 15:39:22;;;;;;;12.32;3.38;;;;;;;6.43;86.69;100505.56;4961785;28;20034;-66
2023/02/01 15:42:02;;;;;;;8.27;2.97;;;;;;;6.51;86.37;100539.31;4940932;29;20039;-66
2023/02/01 15:44:38;;;;;;;6.82;2.55;;;;;;;6.53;86.77;100553.13;4970629;28;20443;-68
2023/02/01 15:47:16;;;;;;;8.70;3.05;;;;;;;6.53;86.76;100541.97;4973523;28;20061;-67
2023/02/01 15:49:44;;;;;;;4.55;2.28;;;;;;;6.46;86.72;100545.88;4946750;28;20050;-66
2023/02/01 15:52:37;;;;;;;5.70;2.45;;;;;;;6.41;86.26;100560.16;4992752;28;20034;-66
2023/02/01 15:55:07;;;;;;;7.22;3.00;;;;;;;6.28;87.16;100561.13;4932385;29;20134;-66
2023/02/01 15:57:40;;;;;;;;;;;;;;;6.25;88.01;100563.53;4932605;29;20040;-66
2023/02/01 16:00:27;;;;;;;3.92;2.20;;;;;;;6.18;87.84;100564.88;4932021;29;19918;-66
2023/02/01 16:02:55;;;;;;;5.25;2.08;;;;;;;6.13;87.53;100567.19;4932256;29;20169;-66
2023/02/01 16:05:32;;;;;;;2.85;1.90;;;;;;;6.11;87.32;100575.59;4932075;29;20039;-68
2023/02/01 16:08:10;;;;;;;5.68;2.65;;;;;;;6.04;87.88;100571.78;4932035;29;20059;-66
2023/02/01 16:10:42;;;;;;;3.70;1.92;;;;;;;5.99;87.47;100571.53;4931391;29;20031;-66
2023/02/01 16:13:08;;;;;;;5.43;2.40;;;;;;;5.97;88.34;100578.19;4931558;29;20039;-65
2023/02/01 16:15:33;;;;;;;5.18;2.83;;;;;;;5.51;89.08;100502.16;4931934;29;20031;-66
2023/02/01 16:17:59;;;;;;;5.85;2.63;;;;;;;5.91;88.69;100572.72;4931803;29;20039;-67
2023/02/01 16:20:24;;;;;;;4.70;1.95;;;;;;;5.88;87.79;100575.13;4931954;29;20032;-66
2023/02/01 16:22:50;;;;;;;6.63;2.67;;;;;;;5.76;89.19;100582.97;4931657;29;20031;-67
2023/02/01 16:25:15;;;;;;;7.90;3.15;;;;;;;5.69;89.68;100577.41;4931503;29;20094;-67
2023/02/01 16:27:41;;;;;;;5.68;3.10;;;;;;;5.66;90.53;100578.13;4932143;29;20067;-65
2023/02/01 16:30:09;;;;;;;8.75;3.88;;;;;;;5.30;91.38;100527.38;4932841;29;20031;-70
2023/02/01 16:32:37;;;;;;;8.93;3.58;;;;;;;5.17;90.35;100509.53;4976636;28;20089;-66
2023/02/01 16:35:21;;;;;;;11.45;4.85;;;;;;;5.48;90.77;100567.66;4987639;28;20022;-66
2023/02/01 16:37:47;;;;;;;9.80;4.32;;;;;;;5.51;91.69;100578.09;4978477;28;20043;-66
2023/02/01 16:40:17;;;;;;;8.07;3.10;;;;;;;5.45;91.23;100570.94;4970126;28;20547;-65
2023/02/01 16:42:46;;;;;;;5.70;2.80;;;;;;;5.39;91.09;100565.44;4971042;28;20165;-66
2023/02/01 16:45:11;;;;;;;6.00;2.83;;;;;;;5.40;90.33;100582.56;4985173;28;20034;-66
2023/02/01 16:47:41;;;;;;;7.50;2.53;;;;;;;5.38;89.81;100581.59;4972533;28;20035;-66
2023/02/01 16:50:16;;;;;;;6.57;3.00;;;;;;;5.35;90.74;100559.25;4947528;28;20050;-66
2023/02/01 16:52:43;;;;;;;4.97;3.05;;;;;;;5.53;89.74;100586.75;4977904;28;20074;-66
2023/02/01 16:55:16;;;;;;;9.38;3.55;;;;;;;5.56;89.42;100573.22;4988351;28;20539;-66
2023/02/01 16:57:42;;;;;;;7.63;3.80;;;;;;;5.45;88.92;100572.63;4979068;28;20491;-66
2023/02/01 17:00:12;;;;;;;5.28;2.50;;;;;;;5.40;88.84;100563.78;4986613;28;20026;-66
2023/02/01 17:02:39;;;;;;;71.03;34.17;;;;;;;5.49;89.20;100577.13;4990052;28;20435;-66
2023/02/01 17:05:06;;;;;;;35.30;17.38;;;;;;;5.44;88.43;100565.72;4989236;28;20034;-66
2023/02/01 17:07:32;;;;;;;20.63;10.02;;;;;;;5.31;88.62;100559.88;4987872;28;20420;-66
2023/02/01 17:09:58;;;;;;;52.10;25.23;;;;;;;5.45;88.82;100587.97;4990471;28;20022;-66
2023/02/01 17:12:29;;;;;;;8.93;4.80;;;;;;;5.42;89.51;100596.38;4989726;28;20034;-66
2023/02/01 17:14:54;;;;;;;16.20;7.57;;;;;;;5.41;89.49;100601.38;4988117;28;20058;-66
2023/02/01 17:17:20;;;;;;;8.13;4.38;;;;;;;5.37;89.32;100602.00;4988647;28;20476;-66
2023/02/01 17:19:51;;;;;;;7.40;4.80;;;;;;;5.44;89.54;100609.25;4983425;28;20038;-66
2023/02/01 17:22:24;;;;;;;10.18;6.05;;;;;;;5.43;89.21;100608.38;4987880;28;20439;-66
2023/02/01 17:24:51;;;;;;;11.50;6.90;;;;;;;5.48;89.77;100609.53;4987550;28;20026;-66
2023/02/01 17:27:18;;;;;;;13.93;8.77;;;;;;;5.48;89.41;100583.94;4985798;28;20069;-66
2023/02/01 17:29:45;;;;;;;11.27;5.65;;;;;;;5.65;91.52;100597.72;4990680;28;20110;-66
2023/02/01 17:32:29;;;;;;;6.28;3.40;;;;;;;5.46;92.49;100610.25;4991081;28;20034;-66
2023/02/01 17:34:57;;;;;;;15.38;10.40;;;;;;;5.21;93.64;100567.81;4980641;28;20026;-67
2023/02/01 17:37:32;;;;;;;7.60;4.47;;;;;;;5.47;94.60;100601.75;4990927;28;20044;-66
2023/02/01 17:40:19;;;;;;;10.45;5.60;;;;;;;5.30;95.55;100565.78;4949740;29;20043;-67
2023/02/01 17:42:45;;;;;;;84.00;40.95;;;;;;;5.58;96.57;100608.41;4933824;29;20557;-66
2023/02/01 17:45:39;;;;;;;36.10;18.05;;;;;;;5.53;97.16;100614.03;4910164;29;20063;-66
2023/02/01 17:48:06;;;;;;;49.95;26.52;;;;;;;5.50;94.80;100622.44;4911236;29;20568;-67
2023/02/01 17:50:35;;;;;;;51.22;27.25;;;;;;;5.44;95.63;100622.94;4872948;29;20045;-66
2023/02/01 17:53:02;;;;;;;48.90;27.60;;;;;;;5.40;96.04;100615.88;4870630;29;20048;-68
2023/02/01 17:55:28;;;;;;;22.52;13.68;;;;;;;5.38;93.50;100620.00;4868884;29;20052;-66
2023/02/01 17:58:14;;;;;;;12.75;7.00;;;;;;;5.39;92.41;100618.34;4854861;29;20420;-65
2023/02/01 18:00:42;;;;;;;10.20;5.93;;;;;;;5.35;91.83;100619.81;4854769;29;20050;-66
2023/02/01 18:03:25;;;;;;;15.38;9.10;;;;;;;5.26;92.10;100599.69;4854899;29;20042;-66
2023/02/01 18:05:54;;;;;;;14.05;7.10;;;;;;;5.31;91.98;100599.97;4848028;29;20046;-66
2023/02/01 18:08:25;;;;;;;13.70;7.30;;;;;;;5.36;92.32;100613.91;4854783;29;20116;-66
2023/02/01 18:10:54;;;;;;;12.25;5.65;;;;;;;5.29;92.02;100612.66;4859399;29;20040;-66
2023/02/01 18:13:20;;;;;;;9.25;4.03;;;;;;;4.92;91.38;100622.31;4891621;29;20037;-66
2023/02/01 18:15:46;;;;;;;10.05;4.28;;;;;;;4.83;91.47;100618.38;4891969;29;20040;-66
2023/02/01 18:18:11;;;;;;;19.95;4.18;;;;;;;4.51;91.81;100578.91;4892017;29;20055;-66
2023/02/01 18:20:39;;;;;;;8.35;4.05;;;;;;;4.51;91.97;100567.78;4891830;29;20197;-66
2023/02/01 18:23:05;;;;;;;6.40;3.83;;;;;;;4.58;91.63;100590.41;4906232;29;20650;-65
2023/02/01 18:25:36;;;;;;;5.28;3.15;;;;;;;4.61;92.31;100613.63;4910967;29;20107;-66
2023/02/01 18:28:19;;;;;;;7.97;3.63;;;;;;;4.49;93.94;100625.63;4901626;28;20104;-66
2023/02/01 18:30:47;;;;;;;25.10;10.85;;;;;;;4.33;94.84;100596.50;4951364;28;20031;-66
2023/02/01 18:33:16;;;;;;;26.25;12.02;;;;;;;4.37;94.64;100613.84;4951730;28;20089;-66
2023/02/01 18:35:43;;;;;;;27.55;12.77;;;;;;;4.40;95.24;100625.00;4953374;28;20102;-66
2023/02/01 18:38:10;;;;;;;21.73;9.38;;;;;;;4.36;94.96;100619.72;4948305;28;20505;-65
2023/02/01 18:40:50;;;;;;;17.13;8.50;;;;;;;4.36;95.74;100624.84;4944884;28;20473;-65
2023/02/01 18:43:15;;;;;;;18.58;9.10;;;;;;;4.40;95.80;100622.47;4960527;28;20047;-65
2023/02/01 18:45:46;;;;;;;12.40;6.47;;;;;;;4.45;94.73;100621.97;4971794;28;20500;-65
2023/02/01 18:48:13;;;;;;;11.52;4.93;;;;;;;4.31;94.49;100576.75;4972163;28;20134;-65
2023/02/01 18:50:41;;;;;;;12.40;5.53;;;;;;;4.35;94.79;100566.81;4959473;28;20598;-66
2023/02/01 18:53:14;;;;;;;9.38;4.88;;;;;;;4.50;94.86;100589.03;4963472;28;20055;-66
2023/02/01 18:55:41;;;;;;;7.68;4.50;;;;;;;4.59;94.84;100638.19;4958136;28;20117;-66
2023/02/01 18:58:10;;;;;;;7.25;3.95;;;;;;;4.32;95.82;100642.41;4966972;28;20046;-66
2023/02/01 19:00:36;;;;;;;5.30;3.35;;;;;;;4.08;96.77;100637.47;4992106;28;20034;-65
2023/02/01 19:03:03;;;;;;;7.78;3.25;;;;;;;3.83;98.20;100642.66;4993384;28;20042;-65
2023/02/01 19:05:29;;;;;;;9.30;3.63;;;;;;;3.62;99.02;100634.44;4993068;28;20022;-66
2023/02/01 19:07:55;;;;;;;7.82;4.85;;;;;;;3.51;99.42;100629.47;4993562;28;20026;-66
2023/02/01 19:10:22;;;;;;;7.28;3.97;;;;;;;3.53;99.76;100629.59;4986933;28;20642;-66
2023/02/01 19:12:50;;;;;;;11.90;4.28;;;;;;;3.47;99.61;100634.28;4974855;28;20034;-65
2023/02/01 19:15:39;;;;;;;7.72;4.50;;;;;;;3.56;100.00;100632.34;4965198;28;20035;-65
2023/02/01 19:18:05;;;;;;;7.22;4.40;;;;;;;3.61;100.00;100636.06;4977906;28;20054;-66
2023/02/01 19:20:33;;;;;;;7.53;3.35;;;;;;;3.63;100.00;100637.06;4965772;28;20046;-63
2023/02/01 19:22:58;;;;;;;9.02;4.82;;;;;;;3.34;100.00;100599.34;4971404;28;20034;-65
2023/02/01 19:25:28;;;;;;;8.60;5.68;;;;;;;3.46;100.00;100635.06;4971008;28;20043;-66
2023/02/01 19:28:14;;;;;;;13.10;7.60;;;;;;;3.14;100.00;100592.91;4971040;28;20058;-65
2023/02/01 19:30:40;;;;;;;8.95;5.60;;;;;;;3.34;100.00;100623.22;4931910;29;20039;-66
2023/02/01 19:33:05;;;;;;;11.65;6.45;;;;;;;3.32;100.00;100629.00;4932601;29;20054;-65
2023/02/01 19:35:32;;;;;;;10.95;6.28;;;;;;;3.32;100.00;100622.22;4916088;29;20036;-66
2023/02/01 19:37:58;;;;;;;9.02;5.60;;;;;;;3.30;100.00;100613.59;4916291;29;20071;-65
2023/02/01 19:40:25;;;;;;;10.90;6.88;;;;;;;3.55;100.00;100628.00;4932339;29;20035;-66
2023/02/01 19:42:51;;;;;;;7.43;4.90;;;;;;;3.32;100.00;100585.63;4931085;29;20055;-67
2023/02/01 19:45:17;;;;;;;8.02;4.93;;;;;;;3.46;99.98;100624.84;4915780;29;20039;-68
2023/02/01 19:47:44;;;;;;;8.63;5.53;;;;;;;3.38;99.80;100611.56;4942886;29;20066;-67
2023/02/01 19:50:15;;;;;;;10.35;5.05;;;;;;;3.26;100.00;100570.78;4921637;29;20080;-65
2023/02/01 19:52:41;;;;;;;9.60;4.53;;;;;;;3.51;100.00;100606.50;4932461;29;20067;-65
2023/02/01 19:55:07;;;;;;;9.27;4.97;;;;;;;3.50;100.00;100598.72;4932237;29;20548;-65
2023/02/01 19:57:34;;;;;;;8.00;5.18;;;;;;;3.22;100.00;100579.00;4894012;29;20135;-65
2023/02/01 20:00:05;;;;;;;9.45;5.80;;;;;;;3.37;100.00;100604.69;4896935;29;20535;-65
2023/02/01 20:02:31;;;;;;;11.45;8.02;;;;;;;3.08;100.00;100576.41;4883268;29;20041;-73
2023/02/01 20:04:57;;;;;;;11.75;6.22;;;;;;;2.82;100.00;100560.97;4878207;29;20041;-66
2023/02/01 20:07:22;;;;;;;8.80;5.20;;;;;;;3.04;100.00;100614.34;4901681;29;20042;-66
2023/02/01 20:09:48;;;;;;;7.78;4.68;;;;;;;2.88;100.00;100612.41;4932071;29;20406;-66
2023/02/01 20:12:13;;;;;;;8.63;6.28;;;;;;;2.76;100.00;100602.22;4931814;29;20510;-67
2023/02/01 20:14:39;;;;;;;7.82;4.43;;;;;;;2.74;100.00;100604.66;4931662;29;20051;-67
2023/02/01 20:17:06;;;;;;;8.27;4.65;;;;;;;2.70;100.00;100607.75;4931970;29;20047;-66